KFSI/FSI METAR and TAF weather

Enter ICAO airport designator
Station Type Date Time Source
KFSI METAR 2019/08/23 15:56 UTC NOAA

KFSI 231556Z AUTO 11004KT 10SM FEW090 30/24 A2995 RMK AO2 SLP132 T02980242


Station Type Date Time Source
KFSI Decoded METAR 2019/08/23 15:56 UTC NOAA

Station name not available
Aug 23, 2019 - 11:56 AM EDT / 2019.08.23 1556 UTC
Wind: from the ESE (110 degrees) at 5 MPH (4 KT):0
Visibility: 10 mile(s):0
Sky conditions: mostly clear
Temperature: 85.6 F (29.8 C)
Heat index: 94.5 F (34.7 C):1
Dew Point: 75.6 F (24.2 C)
Relative Humidity: 71%
Pressure (altimeter): 29.95 in. Hg (1014 hPa)
ob: KFSI 231556Z AUTO 11004KT 10SM FEW090 30/24 A2995 RMK AO2 SLP132 T02980242
cycle: 16

Station Type Date Time Source
KFSI TAF 2019/08/23 13:03 UTC NOAA

TAF KFSI 231300Z 2313/2419 VRB06KT 9999 FEW070 QNH2985INS
BECMG 2315/2316 06006KT 9000 -SHRA VCTS BKN050CB QNH2981INS
BECMG 2321/2322 12012KT 9999 NSW FEW050 QNH2986INS
BECMG 2411/2412 16009KT 9000 -SHRA BKN050 QNH2991INS TX33/2321Z TN22/2313Z

Example: see airport list